WXM80 ListenWXM80 Stop

You find our weather info also at:

UK Metoffice

WeatherCloud

Weather Underground

Northeastern Weather Network

AWEKAS

Citizen Weather Observer Program (CWOP)

HAMweather, WeatherForYou, PWS Weather


Weather Underground History page Text

Daily Summary for February 13, 2018 Units:  English    Metric   Both
« Previous Day
Next Day »
Daily Weekly Monthly Yearly Custom
  High: Low: Average:
Temperature: 34.7 °F 26.1 °F 30.4 °F
Dew Point: 26.4 °F 12.9 °F 18.6 °F
Humidity: 82 % 43 % 62 %
Wind Speed: 12.0 mph 0.0 mph 3.7 mph
Wind Gust: 19.6 mph - -
Wind:- - East
Pressure: 30.60 in 30.31 in -
Precipitation: 0.00 in    
Historical Graphs
 
 
Tabular Data for February 13, 2018
Time Temperature Dew Point Pressure Wind Wind Speed Wind Gust Humidity Rainfall Rate (Hourly)
00:02 31.7 °F 23.0 °F 30.43 in NNW 5.1 mph 8.1 mph 70 % 0.00 in
00:07 31.6 °F 23.3 °F 30.43 in North 4.9 mph 6.0 mph 71 % 0.00 in
00:12 31.6 °F 23.3 °F 30.43 in NE 5.3 mph 6.9 mph 71 % 0.00 in
00:18 31.5 °F 23.2 °F 30.43 in NNE 8.4 mph 11.5 mph 71 % 0.00 in
00:23 31.4 °F 22.7 °F 30.44 in NNW 4.1 mph 11.5 mph 70 % 0.00 in
00:28 31.3 °F 22.6 °F 30.44 in NW 3.9 mph 8.1 mph 70 % 0.00 in
00:33 31.2 °F 22.5 °F 30.44 in NNE 3.2 mph 5.8 mph 70 % 0.00 in
00:38 31.1 °F 22.5 °F 30.44 in North 5.1 mph 8.1 mph 70 % 0.00 in
00:43 31.1 °F 22.5 °F 30.44 in NNW 4.0 mph 7.0 mph 70 % 0.00 in
00:48 30.9 °F 22.6 °F 30.44 in North 3.6 mph 5.8 mph 71 % 0.00 in
00:53 30.8 °F 22.5 °F 30.44 in NNE 5.0 mph 8.1 mph 71 % 0.00 in
00:58 30.7 °F 22.4 °F 30.45 in NE 3.4 mph 6.9 mph 71 % 0.00 in
01:03 30.6 °F 22.3 °F 30.45 in NNW 4.5 mph 9.2 mph 71 % 0.00 in
01:08 30.5 °F 21.9 °F 30.45 in North 4.6 mph 7.0 mph 70 % 0.00 in
01:13 30.3 °F 21.7 °F 30.45 in NNE 4.5 mph 8.1 mph 70 % 0.00 in
01:18 30.3 °F 22.0 °F 30.45 in NNE 6.7 mph 9.2 mph 71 % 0.00 in
01:23 30.1 °F 21.5 °F 30.45 in NNE 5.4 mph 9.2 mph 70 % 0.00 in
01:28 30.0 °F 21.4 °F 30.45 in NNE 5.3 mph 10.4 mph 70 % 0.00 in
01:33 29.9 °F 21.3 °F 30.46 in NNW 6.0 mph 11.5 mph 70 % 0.00 in
01:38 29.7 °F 21.1 °F 30.46 in North 6.9 mph 11.5 mph 70 % 0.00 in
01:43 29.6 °F 20.7 °F 30.46 in North 7.9 mph 10.4 mph 69 % 0.00 in
01:48 29.5 °F 20.9 °F 30.46 in NNE 7.1 mph 10.4 mph 70 % 0.00 in
01:54 29.4 °F 20.8 °F 30.47 in NNE 2.3 mph 10.4 mph 70 % 0.00 in
01:59 29.3 °F 20.7 °F 30.47 in NNE 6.3 mph 10.4 mph 70 % 0.00 in
02:04 29.2 °F 20.6 °F 30.47 in NNE 6.2 mph 9.2 mph 70 % 0.00 in
02:09 29.1 °F 20.5 °F 30.47 in NNE 8.0 mph 11.5 mph 70 % 0.00 in
02:14 28.9 °F 20.0 °F 30.47 in NNW 6.4 mph 11.0 mph 69 % 0.00 in
02:19 28.8 °F 19.9 °F 30.48 in North 8.4 mph 15.0 mph 69 % 0.00 in
02:24 28.7 °F 19.8 °F 30.48 in North 3.9 mph 11.5 mph 69 % 0.00 in
02:29 28.7 °F 20.1 °F 30.47 in NE 5.3 mph 8.1 mph 70 % 0.00 in
02:34 28.6 °F 20.1 °F 30.47 in NNE 8.2 mph 11.5 mph 70 % 0.00 in
02:39 28.5 °F 20.0 °F 30.47 in North 7.4 mph 10.4 mph 70 % 0.00 in
02:44 28.4 °F 19.9 °F 30.47 in North 5.4 mph 11.5 mph 70 % 0.00 in
02:49 28.4 °F 19.9 °F 30.47 in NNE 9.6 mph 15.0 mph 70 % 0.00 in
02:54 28.3 °F 19.8 °F 30.47 in NNE 4.8 mph 7.0 mph 70 % 0.00 in
02:59 28.3 °F 19.8 °F 30.47 in NNE 7.3 mph 15.0 mph 70 % 0.00 in
03:04 28.2 °F 19.7 °F 30.48 in NNE 8.8 mph 12.7 mph 70 % 0.00 in
03:09 28.1 °F 19.6 °F 30.48 in North 6.7 mph 12.7 mph 70 % 0.00 in
03:15 28.0 °F 19.5 °F 30.48 in NE 8.7 mph 13.0 mph 70 % 0.00 in
03:20 27.9 °F 19.0 °F 30.49 in North 6.7 mph 9.2 mph 69 % 0.00 in
03:25 27.9 °F 19.0 °F 30.49 in North 8.3 mph 15.0 mph 69 % 0.00 in
03:30 27.8 °F 18.9 °F 30.49 in NNE 7.7 mph 12.0 mph 69 % 0.00 in
03:35 27.7 °F 18.8 °F 30.49 in NE 5.9 mph 15.0 mph 69 % 0.00 in
03:40 27.6 °F 18.8 °F 30.49 in NNW 9.1 mph 14.0 mph 69 % 0.00 in
03:45 27.6 °F 18.8 °F 30.49 in NNE 8.5 mph 12.0 mph 69 % 0.00 in
03:50 27.5 °F 18.7 °F 30.49 in NNE 6.6 mph 10.4 mph 69 % 0.00 in
03:55 27.4 °F 18.6 °F 30.49 in NNE 6.8 mph 10.4 mph 69 % 0.00 in
04:00 27.4 °F 18.6 °F 30.50 in NE 7.0 mph 13.8 mph 69 % 0.00 in
04:05 27.3 °F 18.5 °F 30.50 in NNE 7.0 mph 11.5 mph 69 % 0.00 in
04:10 27.2 °F 18.0 °F 30.50 in NE 7.3 mph 12.7 mph 68 % 0.00 in
04:15 27.2 °F 18.4 °F 30.50 in NNE 7.0 mph 11.5 mph 69 % 0.00 in
04:20 27.2 °F 18.0 °F 30.50 in North 10.3 mph 11.5 mph 68 % 0.00 in
04:25 27.1 °F 17.9 °F 30.50 in NNE 9.3 mph 13.8 mph 68 % 0.00 in
04:30 27.0 °F 17.8 °F 30.50 in NNW 9.7 mph 14.0 mph 68 % 0.00 in
04:35 27.0 °F 17.8 °F 30.50 in NE 8.8 mph 12.7 mph 68 % 0.00 in
04:40 26.9 °F 17.4 °F 30.50 in NNW 6.6 mph 13.8 mph 67 % 0.00 in
04:45 26.9 °F 17.4 °F 30.51 in North 7.9 mph 14.0 mph 67 % 0.00 in
04:50 26.9 °F 17.0 °F 30.51 in NNE 9.0 mph 14.0 mph 66 % 0.00 in
04:55 26.9 °F 17.4 °F 30.52 in North 7.0 mph 12.0 mph 67 % 0.00 in
05:00 26.8 °F 17.0 °F 30.52 in NNE 6.1 mph 10.4 mph 66 % 0.00 in
05:05 26.7 °F 16.5 °F 30.52 in NNE 6.0 mph 12.0 mph 65 % 0.00 in
05:10 26.7 °F 16.5 °F 30.52 in North 7.0 mph 14.0 mph 65 % 0.00 in
05:15 26.7 °F 16.5 °F 30.53 in NNE 9.7 mph 15.0 mph 65 % 0.00 in
05:20 26.6 °F 16.1 °F 30.53 in NNE 8.0 mph 12.0 mph 64 % 0.00 in
05:25 26.6 °F 16.1 °F 30.53 in North 7.0 mph 13.0 mph 64 % 0.00 in
05:30 26.6 °F 16.1 °F 30.53 in North 6.0 mph 12.0 mph 64 % 0.00 in
05:35 26.5 °F 16.0 °F 30.53 in North 7.0 mph 12.0 mph 64 % 0.00 in
05:40 26.5 °F 16.0 °F 30.53 in North 7.0 mph 13.0 mph 64 % 0.00 in
05:45 26.5 °F 16.0 °F 30.53 in North 8.0 mph 16.0 mph 64 % 0.00 in
05:50 26.4 °F 15.1 °F 30.53 in NNE 9.0 mph 15.0 mph 62 % 0.00 in
05:55 26.4 °F 14.8 °F 30.53 in NNE 8.9 mph 17.3 mph 61 % 0.00 in
06:01 26.4 °F 14.8 °F 30.53 in NNE 7.9 mph 11.5 mph 61 % 0.00 in
06:06 26.3 °F 14.3 °F 30.53 in North 9.6 mph 12.7 mph 60 % 0.00 in
06:11 26.3 °F 14.3 °F 30.52 in NNW 5.8 mph 10.4 mph 60 % 0.00 in
06:16 26.3 °F 15.0 °F 30.53 in North 10.2 mph 15.0 mph 62 % 0.00 in
06:21 26.3 °F 14.3 °F 30.53 in NNE 10.4 mph 13.0 mph 60 % 0.00 in
06:26 26.3 °F 14.3 °F 30.53 in North 7.8 mph 12.7 mph 60 % 0.00 in
06:31 26.2 °F 14.2 °F 30.54 in NNE 7.2 mph 12.0 mph 60 % 0.00 in
06:36 26.2 °F 14.2 °F 30.54 in North 8.5 mph 13.8 mph 60 % 0.00 in
06:41 26.2 °F 14.2 °F 30.54 in NNE 12.0 mph 16.1 mph 60 % 0.00 in
06:46 26.2 °F 13.4 °F 30.54 in NNE 8.0 mph 18.4 mph 58 % 0.00 in
06:51 26.1 °F 12.9 °F 30.55 in NNE 11.3 mph 19.6 mph 57 % 0.00 in
06:56 26.1 °F 13.7 °F 30.55 in NE 9.7 mph 13.8 mph 59 % 0.00 in
07:01 26.1 °F 13.7 °F 30.55 in NNE 6.5 mph 10.4 mph 59 % 0.00 in
07:06 26.2 °F 13.4 °F 30.55 in NNE 8.1 mph 15.0 mph 58 % 0.00 in
07:11 26.2 °F 13.4 °F 30.55 in North 7.2 mph 11.5 mph 58 % 0.00 in
07:17 26.2 °F 13.4 °F 30.56 in North 10.0 mph 13.8 mph 58 % 0.00 in
07:22 26.2 °F 13.8 °F 30.56 in NNE 8.9 mph 15.0 mph 59 % 0.00 in
07:27 26.2 °F 13.0 °F 30.57 in NNE 5.9 mph 13.8 mph 57 % 0.00 in
07:32 26.2 °F 13.0 °F 30.57 in North 9.3 mph 12.7 mph 57 % 0.00 in
07:37 26.2 °F 13.0 °F 30.57 in NNE 7.1 mph 11.5 mph 57 % 0.00 in
07:42 26.3 °F 13.5 °F 30.57 in NNE 6.7 mph 11.5 mph 58 % 0.00 in
07:47 26.3 °F 13.1 °F 30.58 in North 8.4 mph 11.5 mph 57 % 0.00 in
07:52 26.3 °F 13.1 °F 30.57 in NNE 5.7 mph 9.2 mph 57 % 0.00 in
07:57 26.4 °F 13.6 °F 30.58 in NNE 8.3 mph 12.7 mph 58 % 0.00 in
08:02 26.4 °F 13.2 °F 30.58 in NNE 9.0 mph 12.0 mph 57 % 0.00 in
08:07 26.4 °F 13.2 °F 30.58 in NNE 4.0 mph 8.1 mph 57 % 0.00 in
08:12 26.5 °F 13.7 °F 30.58 in NNE 5.6 mph 9.2 mph 58 % 0.00 in
08:17 26.6 °F 13.8 °F 30.58 in NNE 5.9 mph 11.5 mph 58 % 0.00 in
08:22 26.9 °F 14.5 °F 30.58 in NNE 8.0 mph 9.2 mph 59 % 0.00 in
08:27 27.1 °F 14.3 °F 30.58 in NNE 4.9 mph 9.2 mph 58 % 0.00 in
08:32 27.4 °F 14.5 °F 30.59 in NNE 6.1 mph 8.1 mph 58 % 0.00 in
08:37 27.7 °F 14.8 °F 30.59 in NNE 7.0 mph 11.0 mph 58 % 0.00 in
08:42 28.0 °F 14.7 °F 30.59 in NE 3.7 mph 6.9 mph 57 % 0.00 in
08:47 28.3 °F 14.6 °F 30.59 in NNE 7.2 mph 11.5 mph 56 % 0.00 in
08:52 28.7 °F 15.4 °F 30.59 in NNE 3.3 mph 5.8 mph 57 % 0.00 in
08:57 29.1 °F 15.3 °F 30.59 in NNE 3.4 mph 8.1 mph 56 % 0.00 in
09:02 29.6 °F 15.4 °F 30.59 in ENE 4.7 mph 8.1 mph 55 % 0.00 in
09:07 29.9 °F 15.3 °F 30.59 in NNE 3.3 mph 4.6 mph 54 % 0.00 in
09:13 30.6 °F 15.9 °F 30.59 in North 6.7 mph 8.1 mph 54 % 0.00 in
09:18 30.8 °F 16.1 °F 30.59 in NNE 2.8 mph 5.8 mph 54 % 0.00 in
09:23 31.2 °F 15.2 °F 30.58 in NE 2.3 mph 8.1 mph 51 % 0.00 in
09:28 31.4 °F 15.8 °F 30.59 in NNE 2.7 mph 8.1 mph 52 % 0.00 in
09:33 31.4 °F 14.9 °F 30.59 in NE 4.9 mph 8.1 mph 50 % 0.00 in
09:38 31.0 °F 15.0 °F 30.59 in ENE 2.9 mph 6.9 mph 51 % 0.00 in
09:43 31.1 °F 15.1 °F 30.59 in ENE 4.4 mph 5.8 mph 51 % 0.00 in
09:48 30.7 °F 13.8 °F 30.59 in NE 3.1 mph 4.6 mph 49 % 0.00 in
09:53 31.0 °F 15.0 °F 30.60 in ENE 3.0 mph 4.6 mph 51 % 0.00 in
09:58 31.1 °F 14.6 °F 30.59 in ENE 3.6 mph 6.9 mph 50 % 0.00 in
10:03 31.1 °F 14.6 °F 30.60 in ENE 4.0 mph 8.1 mph 50 % 0.00 in
10:08 31.0 °F 15.0 °F 30.60 in ENE 2.8 mph 4.6 mph 51 % 0.00 in
10:13 31.0 °F 14.5 °F 30.60 in NNE 3.2 mph 8.1 mph 50 % 0.00 in
10:18 31.3 °F 15.2 °F 30.59 in NE 3.1 mph 6.9 mph 51 % 0.00 in
10:23 31.6 °F 16.0 °F 30.59 in East 3.8 mph 7.0 mph 52 % 0.00 in
10:28 31.7 °F 15.6 °F 30.59 in ENE 3.0 mph 5.8 mph 51 % 0.00 in
10:33 31.9 °F 15.3 °F 30.59 in East 4.8 mph 9.2 mph 50 % 0.00 in
10:38 31.8 °F 14.8 °F 30.59 in NNE 2.6 mph 4.6 mph 49 % 0.00 in
10:43 32.1 °F 15.5 °F 30.58 in ENE 3.9 mph 6.9 mph 50 % 0.00 in
10:48 32.4 °F 15.8 °F 30.58 in ENE 2.5 mph 6.9 mph 50 % 0.00 in
10:53 33.0 °F 16.4 °F 30.58 in ENE 7.4 mph 8.1 mph 50 % 0.00 in
10:59 32.8 °F 15.7 °F 30.57 in NE 3.0 mph 6.9 mph 49 % 0.00 in
11:04 32.8 °F 14.8 °F 30.58 in ENE 1.3 mph 6.9 mph 47 % 0.00 in
11:09 33.4 °F 15.3 °F 30.58 in ENE 3.9 mph 6.9 mph 47 % 0.00 in
11:14 33.7 °F 16.1 °F 30.58 in ENE 2.6 mph 8.1 mph 48 % 0.00 in
11:19 34.0 °F 16.3 °F 30.58 in NE 4.0 mph 8.1 mph 48 % 0.00 in
11:24 34.0 °F 14.3 °F 30.57 in NE 3.5 mph 5.8 mph 44 % 0.00 in
11:29 34.4 °F 17.7 °F 30.58 in ENE 2.5 mph 3.5 mph 50 % 0.00 in
11:34 34.7 °F 16.5 °F 30.58 in NE 2.1 mph 3.5 mph 47 % 0.00 in
11:39 34.7 °F 15.5 °F 30.57 in NE 3.1 mph 6.9 mph 45 % 0.00 in
11:44 34.4 °F 16.2 °F 30.57 in ENE 2.9 mph 4.0 mph 47 % 0.00 in
11:49 34.2 °F 16.0 °F 30.56 in East 2.8 mph 5.0 mph 47 % 0.00 in
11:54 34.1 °F 16.9 °F 30.56 in ENE 1.4 mph 4.0 mph 49 % 0.00 in
11:59 33.4 °F 14.3 °F 30.56 in ESE 2.8 mph 4.6 mph 45 % 0.00 in
12:04 33.0 °F 15.4 °F 30.56 in East 3.8 mph 6.0 mph 48 % 0.00 in
12:09 32.6 °F 16.0 °F 30.56 in NE 2.6 mph 5.0 mph 50 % 0.00 in
12:14 32.7 °F 14.7 °F 30.56 in ENE 1.9 mph 3.5 mph 47 % 0.00 in
12:19 32.8 °F 14.8 °F 30.57 in ENE 2.8 mph 4.0 mph 47 % 0.00 in
12:24 32.9 °F 15.8 °F 30.56 in NE 0.9 mph 3.0 mph 49 % 0.00 in
12:30 33.0 °F 12.9 °F 30.56 in ENE 0.5 mph 1.0 mph 43 % 0.00 in
12:35 33.3 °F 14.7 °F 30.56 in ENE 4.6 mph 6.9 mph 46 % 0.00 in
12:40 33.3 °F 14.2 °F 30.55 in ENE 3.4 mph 4.6 mph 45 % 0.00 in
12:45 33.2 °F 14.1 °F 30.55 in ENE 2.7 mph 4.6 mph 45 % 0.00 in
12:50 33.2 °F 14.6 °F 30.55 in ENE 3.5 mph 8.1 mph 46 % 0.00 in
12:55 33.2 °F 13.6 °F 30.54 in ENE 2.4 mph 3.5 mph 44 % 0.00 in
13:00 33.4 °F 15.3 °F 30.54 in East 4.2 mph 6.9 mph 47 % 0.00 in
13:05 33.4 °F 14.8 °F 30.54 in NE 3.9 mph 6.0 mph 46 % 0.00 in
13:10 33.6 °F 15.0 °F 30.54 in ENE 3.4 mph 4.6 mph 46 % 0.00 in
13:15 33.9 °F 15.3 °F 30.53 in NE 1.5 mph 3.5 mph 46 % 0.00 in
13:20 34.0 °F 13.8 °F 30.53 in East 3.3 mph 6.9 mph 43 % 0.00 in
13:25 34.0 °F 13.8 °F 30.53 in ENE 2.0 mph 3.5 mph 43 % 0.00 in
13:30 34.1 °F 14.9 °F 30.52 in ENE 5.9 mph 7.0 mph 45 % 0.00 in
13:35 34.1 °F 14.4 °F 30.52 in East 2.8 mph 4.6 mph 44 % 0.00 in
13:41 34.2 °F 14.5 °F 30.52 in ENE 2.0 mph 6.0 mph 44 % 0.00 in
13:46 34.3 °F 16.1 °F 30.52 in ENE 3.0 mph 7.0 mph 47 % 0.00 in
13:51 34.4 °F 15.7 °F 30.51 in NE 4.1 mph 7.0 mph 46 % 0.00 in
13:56 34.4 °F 15.7 °F 30.51 in East 3.6 mph 5.8 mph 46 % 0.00 in
14:01 34.4 °F 15.2 °F 30.51 in NE 4.8 mph 6.9 mph 45 % 0.00 in
14:06 34.1 °F 14.9 °F 30.51 in NE 5.7 mph 7.0 mph 45 % 0.00 in
14:11 34.0 °F 14.9 °F 30.51 in ENE 5.1 mph 9.2 mph 45 % 0.00 in
14:16 33.9 °F 14.8 °F 30.51 in NE 4.2 mph 6.9 mph 45 % 0.00 in
14:21 33.7 °F 16.1 °F 30.51 in ENE 3.8 mph 6.9 mph 48 % 0.00 in
14:26 33.7 °F 15.6 °F 30.50 in NE 3.1 mph 4.6 mph 47 % 0.00 in
14:31 33.9 °F 16.3 °F 30.50 in ENE 2.1 mph 3.5 mph 48 % 0.00 in
14:36 33.9 °F 15.8 °F 30.50 in ENE 3.5 mph 6.9 mph 47 % 0.00 in
14:41 34.0 °F 16.3 °F 30.50 in ENE 2.7 mph 4.0 mph 48 % 0.00 in
14:46 33.8 °F 15.7 °F 30.50 in ENE 3.0 mph 4.6 mph 47 % 0.00 in
14:51 33.7 °F 16.1 °F 30.50 in East 2.8 mph 3.5 mph 48 % 0.00 in
14:56 33.6 °F 16.5 °F 30.50 in ENE 2.6 mph 4.6 mph 49 % 0.00 in
15:01 33.4 °F 15.3 °F 30.50 in East 3.1 mph 3.1 mph 47 % 0.00 in
15:07 33.3 °F 15.2 °F 30.50 in ENE 3.7 mph 3.7 mph 47 % 0.00 in
15:12 33.3 °F 14.2 °F 30.50 in ENE 1.9 mph 3.5 mph 45 % 0.00 in
15:17 33.3 °F 15.2 °F 30.50 in ENE 2.4 mph 4.6 mph 47 % 0.00 in
15:22 33.4 °F 13.8 °F 30.49 in East 2.1 mph 6.9 mph 44 % 0.00 in
15:27 33.3 °F 13.2 °F 30.50 in ENE 3.5 mph 6.9 mph 43 % 0.00 in
15:32 33.3 °F 15.2 °F 30.49 in ENE 2.9 mph 4.6 mph 47 % 0.00 in
15:37 33.4 °F 15.8 °F 30.49 in ENE 2.4 mph 8.1 mph 48 % 0.00 in
15:42 33.3 °F 15.2 °F 30.50 in ENE 2.4 mph 3.5 mph 47 % 0.00 in
15:47 33.3 °F 15.2 °F 30.50 in NE 2.6 mph 3.5 mph 47 % 0.00 in
15:52 33.2 °F 15.1 °F 30.50 in ENE 3.1 mph 4.6 mph 47 % 0.00 in
15:57 33.2 °F 15.6 °F 30.50 in ENE 2.4 mph 4.0 mph 48 % 0.00 in
16:02 33.2 °F 16.5 °F 30.50 in ENE 3.4 mph 5.8 mph 50 % 0.00 in
16:08 33.1 °F 15.5 °F 30.50 in ENE 3.1 mph 4.6 mph 48 % 0.00 in
16:13 33.0 °F 16.8 °F 30.50 in NE 2.4 mph 4.0 mph 51 % 0.00 in
16:18 33.0 °F 16.4 °F 30.49 in NE 2.2 mph 3.5 mph 50 % 0.00 in
16:23 32.9 °F 15.3 °F 30.49 in ENE 3.5 mph 5.0 mph 48 % 0.00 in
16:28 32.9 °F 16.3 °F 30.49 in ENE 1.7 mph 3.5 mph 50 % 0.00 in
16:33 32.8 °F 16.2 °F 30.49 in ENE 2.7 mph 3.5 mph 50 % 0.00 in
16:38 32.8 °F 16.6 °F 30.49 in ENE 1.1 mph 2.3 mph 51 % 0.00 in
16:43 32.7 °F 17.0 °F 30.49 in ENE 2.1 mph 3.5 mph 52 % 0.00 in
16:48 32.7 °F 17.4 °F 30.49 in ENE 1.0 mph 3.5 mph 53 % 0.00 in
16:53 32.6 °F 17.8 °F 30.49 in ENE 1.1 mph 2.3 mph 54 % 0.00 in
16:58 32.6 °F 18.2 °F 30.49 in ESE 0.3 mph 2.3 mph 55 % 0.00 in
17:03 32.6 °F 18.6 °F 30.48 in SE 1.3 mph 4.6 mph 56 % 0.00 in
17:08 32.5 °F 19.3 °F 30.48 in South 1.1 mph 4.6 mph 58 % 0.00 in
17:13 32.5 °F 20.1 °F 30.48 in SSE 2.8 mph 3.5 mph 60 % 0.00 in
17:19 32.5 °F 20.5 °F 30.48 in SE 3.9 mph 5.0 mph 61 % 0.00 in
17:24 32.5 °F 20.9 °F 30.48 in South 0.9 mph 3.5 mph 62 % 0.00 in
17:29 32.4 °F 20.8 °F 30.48 in South 1.6 mph 4.6 mph 62 % 0.00 in
17:34 32.3 °F 20.7 °F 30.47 in Calm   2.3 mph 62 % 0.00 in
17:39 32.3 °F 21.1 °F 30.48 in SSE 2.0 mph 4.0 mph 63 % 0.00 in
17:44 32.1 °F 20.9 °F 30.48 in SSE 2.3 mph 3.5 mph 63 % 0.00 in
17:49 32.0 °F 20.8 °F 30.48 in SE 0.3 mph 2.3 mph 63 % 0.00 in
17:54 31.9 °F 20.7 °F 30.48 in SSE 1.2 mph 4.0 mph 63 % 0.00 in
17:59 31.8 °F 21.4 °F 30.48 in SSE 2.6 mph 3.5 mph 65 % 0.00 in
18:04 31.7 °F 21.3 °F 30.48 in SSE 0.1 mph 3.5 mph 65 % 0.00 in
18:09 31.6 °F 21.5 °F 30.48 in SSE 2.8 mph 3.5 mph 66 % 0.00 in
18:14 31.5 °F 21.8 °F 30.48 in SSE 1.0 mph 3.5 mph 67 % 0.00 in
18:19 31.5 °F 21.8 °F 30.48 in SSE 1.1 mph 4.0 mph 67 % 0.00 in
18:24 31.4 °F 22.1 °F 30.48 in SSE 1.6 mph 3.5 mph 68 % 0.00 in
18:29 31.2 °F 22.2 °F 30.48 in South 0.2 mph 2.0 mph 69 % 0.00 in
18:34 31.1 °F 22.1 °F 30.48 in South 0.5 mph 2.3 mph 69 % 0.00 in
18:39 31.1 °F 22.5 °F 30.47 in SSE 1.1 mph 3.5 mph 70 % 0.00 in
18:44 31.0 °F 22.4 °F 30.47 in SSE 1.3 mph 4.0 mph 70 % 0.00 in
18:49 31.0 °F 22.7 °F 30.47 in SSE 1.0 mph 3.5 mph 71 % 0.00 in
18:55 30.9 °F 22.9 °F 30.46 in SSE 0.2 mph 4.6 mph 72 % 0.00 in
19:00 30.9 °F 22.9 °F 30.46 in SSE 0.3 mph 2.3 mph 72 % 0.00 in
19:05 30.8 °F 23.2 °F 30.46 in Calm     73 % 0.00 in
19:10 30.8 °F 23.2 °F 30.45 in Calm     73 % 0.00 in
19:15 30.7 °F 23.1 °F 30.45 in Calm     73 % 0.00 in
19:20 30.7 °F 23.1 °F 30.45 in Calm     73 % 0.00 in
19:25 30.6 °F 23.0 °F 30.46 in Calm     73 % 0.00 in
19:30 30.5 °F 22.9 °F 30.45 in Calm     73 % 0.00 in
19:35 30.3 °F 22.7 °F 30.45 in Calm     73 % 0.00 in
19:40 30.2 °F 22.9 °F 30.44 in Calm     74 % 0.00 in
19:45 30.0 °F 22.7 °F 30.44 in Calm     74 % 0.00 in
19:50 29.9 °F 22.6 °F 30.45 in Calm     74 % 0.00 in
19:55 29.7 °F 22.7 °F 30.45 in Calm     75 % 0.00 in
20:00 29.6 °F 23.0 °F 30.45 in Calm     76 % 0.00 in
20:05 29.4 °F 22.8 °F 30.44 in Calm     76 % 0.00 in
20:10 29.3 °F 22.7 °F 30.45 in Calm     76 % 0.00 in
20:16 29.2 °F 22.9 °F 30.45 in Calm     77 % 0.00 in
20:21 29.1 °F 22.7 °F 30.44 in Calm     77 % 0.00 in
20:26 29.0 °F 22.7 °F 30.44 in Calm     77 % 0.00 in
20:31 29.0 °F 23.0 °F 30.44 in Calm     78 % 0.00 in
20:36 28.9 °F 23.2 °F 30.43 in Calm     79 % 0.00 in
20:41 28.9 °F 23.2 °F 30.43 in Calm     79 % 0.00 in
20:46 28.9 °F 23.5 °F 30.43 in Calm     80 % 0.00 in
20:51 29.0 °F 23.9 °F 30.43 in Calm     81 % 0.00 in
20:56 29.0 °F 23.9 °F 30.43 in Calm     81 % 0.00 in
21:01 29.0 °F 23.9 °F 30.42 in Calm     81 % 0.00 in
21:06 29.1 °F 24.0 °F 30.41 in Calm     81 % 0.00 in
21:11 29.2 °F 24.1 °F 30.41 in Calm     81 % 0.00 in
21:16 29.3 °F 24.2 °F 30.41 in Calm     81 % 0.00 in
21:21 29.4 °F 24.6 °F 30.41 in Calm     82 % 0.00 in
21:26 29.5 °F 24.4 °F 30.40 in Calm     81 % 0.00 in
21:31 29.6 °F 24.5 °F 30.40 in Calm     81 % 0.00 in
21:36 29.7 °F 24.6 °F 30.40 in Calm     81 % 0.00 in
21:41 29.7 °F 24.6 °F 30.39 in Calm     81 % 0.00 in
21:46 29.9 °F 25.1 °F 30.39 in Calm     82 % 0.00 in
21:51 30.0 °F 24.9 °F 30.38 in Calm     81 % 0.00 in
21:56 30.1 °F 25.0 °F 30.38 in Calm     81 % 0.00 in
22:01 30.1 °F 25.3 °F 30.38 in Calm     82 % 0.00 in
22:06 30.2 °F 25.1 °F 30.38 in Calm     81 % 0.00 in
22:11 30.3 °F 25.2 °F 30.37 in Calm     81 % 0.00 in
22:16 30.3 °F 25.2 °F 30.37 in Calm     81 % 0.00 in
22:21 30.4 °F 25.3 °F 30.37 in Calm     81 % 0.00 in
22:26 30.5 °F 25.4 °F 30.36 in Calm     81 % 0.00 in
22:31 30.5 °F 25.7 °F 30.36 in Calm     82 % 0.00 in
22:37 30.6 °F 25.5 °F 30.36 in Calm     81 % 0.00 in
22:42 30.6 °F 25.8 °F 30.36 in Calm     82 % 0.00 in
22:47 30.6 °F 25.8 °F 30.36 in Calm     82 % 0.00 in
22:52 30.7 °F 25.9 °F 30.36 in Calm     82 % 0.00 in
22:57 30.7 °F 25.9 °F 30.36 in Calm     82 % 0.00 in
23:02 30.8 °F 26.0 °F 30.35 in Calm     82 % 0.00 in
23:07 30.8 °F 26.0 °F 30.35 in Calm     82 % 0.00 in
23:12 30.9 °F 26.1 °F 30.34 in Calm     82 % 0.00 in
23:17 30.9 °F 26.1 °F 30.34 in Calm     82 % 0.00 in
23:22 30.9 °F 26.1 °F 30.34 in Calm     82 % 0.00 in
23:27 31.0 °F 25.9 °F 30.33 in Calm     81 % 0.00 in
23:32 31.1 °F 26.2 °F 30.32 in SSE 0.2 mph 1.2 mph 82 % 0.00 in
23:37 31.1 °F 26.2 °F 30.32 in Calm     82 % 0.00 in
23:42 31.2 °F 26.3 °F 30.32 in Calm     82 % 0.00 in
23:47 31.2 °F 26.3 °F 30.32 in Calm     82 % 0.00 in
23:52 31.3 °F 26.4 °F 30.32 in Calm     82 % 0.00 in
23:57 31.3 °F 26.4 °F 30.31 in Calm     82 % 0.00 in
Crab Meadow Weather
Compliments of Weather Underground - 3 mb

Script developed by  Jim McMurry - jmcmurry@mwt.net Adapted for the template by  Wim van der Kuil - Leuven-Template.eu

Recycling: An estimated 80,000,000 Hershey's Kisses are wrapped each day, using enough aluminum foil to cover over 50 acres of space -- that's almost 40 football fields. All that foil is recyclable, but not many people realize it.